sensor_id;sensor_type;location;lat;lon;timestamp;pressure;altitude;pressure_sealevel;temperature;humidity
15558;BME280;7880;50.110;9.372;2022-12-08T00:11:30;2.046952011086978;;;2.187;100.0
15558;BME280;7880;50.110;9.372;2022-12-08T00:16:36;2.0519938240351623;;;2.187;100.0
15558;BME280;7880;50.110;9.372;2022-12-08T00:21:38;2.001575707650045;;;2.187;100.0
15558;BME280;7880;50.110;9.372;2022-12-08T00:26:42;2.067119264625944;;;2.187;100.0
15558;BME280;7880;50.110;9.372;2022-12-08T00:31:45;2.0923283380980138;;;2.25;100.0
15558;BME280;7880;50.110;9.372;2022-12-08T00:36:48;1.9814084692450706;;;2.125;100.0
15558;BME280;7880;50.110;9.372;2022-12-08T00:42:26;1.885614150413312;;;2.062;100.0
15558;BME280;7880;50.110;9.372;2022-12-08T00:47:05;1.9864502784097566;;;2.125;100.0
15558;BME280;7880;50.110;9.372;2022-12-08T00:52:08;2.087286522821523;;;2.187;100.0
15558;BME280;7880;50.110;9.372;2022-12-08T00:57:12;2.0217429507116322;;;2.125;100.0
15558;BME280;7880;50.110;9.372;2022-12-08T01:02:18;1.9461158132413403;;;2.062;100.0
15558;BME280;7880;50.110;9.372;2022-12-08T01:07:21;1.930990393605316;;;2.062;100.0
15558;BME280;7880;50.110;9.372;2022-12-08T01:12:27;1.8604051366040948;;;2.0;100.0
15558;BME280;7880;50.110;9.372;2022-12-08T01:17:30;1.8906559540482704;;;2.062;100.0
15558;BME280;7880;50.110;9.372;2022-12-08T01:22:33;1.880572347069392;;;2.0;100.0
15558;BME280;7880;50.110;9.372;2022-12-08T01:27:36;1.930990393605316;;;2.062;100.0
15558;BME280;7880;50.110;9.372;2022-12-08T01:32:42;2.0419101984298322;;;2.125;100.0
15558;BME280;7880;50.110;9.372;2022-12-08T01:37:44;1.966283043497242;;;2.062;100.0
15558;BME280;7880;50.110;9.372;2022-12-08T01:42:48;1.920906781969825;;;2.062;100.0
15558;BME280;7880;50.110;9.372;2022-12-08T01:47:56;1.9864502784097566;;;2.062;100.0
15558;BME280;7880;50.110;9.372;2022-12-08T01:52:59;1.9864502784097566;;;2.125;100.0
15558;BME280;7880;50.110;9.372;2022-12-08T01:58:05;1.9158649765886366;;;2.062;100.0
15558;BME280;7880;50.110;9.372;2022-12-08T02:03:06;1.8553633347153664;;;2.062;100.0
15558;BME280;7880;50.110;9.372;2022-12-08T02:08:11;1.885614150413312;;;2.0;100.0
15558;BME280;7880;50.110;9.372;2022-12-08T02:13:15;1.9914920878654812;;;2.125;100.0
15558;BME280;7880;50.110;9.372;2022-12-08T02:18:26;1.8755305440165102;;;2.0;100.0
15558;BME280;7880;50.110;9.372;2022-12-08T02:23:25;1.9410740064049605;;;2.062;100.0
15558;BME280;7880;50.110;9.372;2022-12-08T02:28:41;1.8351961300708353;;;2.0;100.0
15558;BME280;7880;50.110;9.372;2022-12-08T02:33:45;1.9713248517888133;;;2.125;100.0
15558;BME280;7880;50.110;9.372;2022-12-08T02:38:42;1.9914920878654812;;;2.125;100.0
15558;BME280;7880;50.110;9.372;2022-12-08T02:43:42;1.966283043497242;;;2.125;100.0
15558;BME280;7880;50.110;9.372;2022-12-08T02:48:47;1.880572347069392;;;2.0;100.0
15558;BME280;7880;50.110;9.372;2022-12-08T02:53:42;1.8553633347153664;;;2.0;100.0
15558;BME280;7880;50.110;9.372;2022-12-08T02:58:57;1.8604051366040948;;;2.0;100.0
15558;BME280;7880;50.110;9.372;2022-12-08T03:04:01;1.850321533117676;;;2.0;100.0
15558;BME280;7880;50.110;9.372;2022-12-08T03:08:56;1.7696527471358423;;;1.937;100.0
15558;BME280;7880;50.110;9.372;2022-12-08T03:13:58;1.8150289300829172;;;1.937;100.0
15558;BME280;7880;50.110;9.372;2022-12-08T03:19:03;1.7898199366463814;;;1.937;100.0
15558;BME280;7880;50.110;9.372;2022-12-08T03:24:05;1.8301543296372984;;;1.937;100.0
15558;BME280;7880;50.110;9.372;2022-12-08T03:29:07;1.8452797318110243;;;2.0;100.0
15558;BME280;7880;50.110;9.372;2022-12-08T03:34:14;1.9108231714984867;;;2.0;100.0
15558;BME280;7880;50.110;9.372;2022-12-08T03:39:14;1.8251125294947996;;;2.0;100.0
15558;BME280;7880;50.110;9.372;2022-12-08T03:44:19;1.784778138832189;;;1.937;100.0
15558;BME280;7880;50.110;9.372;2022-12-08T03:49:22;1.895697757974267;;;2.0;100.0
15558;BME280;7880;50.110;9.372;2022-12-08T03:54:25;1.8755305440165102;;;2.0;100.0
15558;BME280;7880;50.110;9.372;2022-12-08T03:59:28;1.9713248517888133;;;2.062;100.0
15558;BME280;7880;50.110;9.372;2022-12-08T04:04:35;1.8906559540482704;;;2.0;100.0
15558;BME280;7880;50.110;9.372;2022-12-08T04:09:36;1.804945331835188;;;1.937;100.0
15558;BME280;7880;50.110;9.372;2022-12-08T04:14:42;1.7141929999925196;;;1.875;100.0
15558;BME280;7880;50.110;9.372;2022-12-08T04:19:44;1.7494855622819159;;;1.875;100.0
15558;BME280;7880;50.110;9.372;2022-12-08T04:24:47;1.8301543296372984;;;1.937;100.0
15558;BME280;7880;50.110;9.372;2022-12-08T04:29:54;1.920906781969825;;;2.062;100.0
15558;BME280;7880;50.110;9.372;2022-12-08T04:34:59;1.8099871308135334;;;2.0;100.0
15558;BME280;7880;50.110;9.372;2022-12-08T04:40:00;1.8351961300708353;;;2.0;100.0
15558;BME280;7880;50.110;9.372;2022-12-08T04:45:05;1.7444437667960302;;;1.875;100.0
15558;BME280;7880;50.110;9.372;2022-12-08T04:50:12;1.9713248517888133;;;2.062;100.0
15558;BME280;7880;50.110;9.372;2022-12-08T04:55:14;1.920906781969825;;;2.062;100.0
15558;BME280;7880;50.110;9.372;2022-12-08T05:05:22;1.6889840356598143;;;1.812;100.0
15558;BME280;7880;50.110;9.372;2022-12-08T05:10:24;1.7091512065439018;;;1.875;100.0
15558;BME280;7880;50.110;9.372;2022-12-08T05:15:41;1.7595691541268024;;;1.875;100.0
15558;BME280;7880;50.110;9.372;2022-12-08T05:20:51;1.6789004519640003;;;1.812;100.0
15558;BME280;7880;50.110;9.372;2022-12-08T05:25:56;1.6637750786030665;;;1.812;100.0
15558;BME280;7880;50.110;9.372;2022-12-08T05:30:52;1.6183989742363338;;;1.75;100.0
15558;BME280;7880;50.110;9.372;2022-12-08T05:35:55;1.6083153986895922;;;1.75;100.0
15558;BME280;7880;50.110;9.372;2022-12-08T05:40:59;1.588148251088569;;;1.75;100.0
15558;BME280;7880;50.110;9.372;2022-12-08T05:46:04;1.623440762446262;;;1.75;100.0
15558;BME280;7880;50.110;9.372;2022-12-08T05:51:20;1.4973961445095483;;;1.687;100.0
15558;BME280;7880;50.110;9.372;2022-12-08T05:56:18;1.623440762446262;;;1.75;100.0
15558;BME280;7880;50.110;9.372;2022-12-08T06:01:23;1.6083153986895922;;;1.75;100.0
15558;BME280;7880;50.110;9.372;2022-12-08T06:06:28;1.6284825509472285;;;1.75;100.0
15558;BME280;7880;50.110;9.372;2022-12-08T06:11:34;1.5730228934437036;;;1.687;100.0
15558;BME280;7880;50.110;9.372;2022-12-08T06:16:31;1.603273611352779;;;1.687;100.0
15558;BME280;7880;50.110;9.372;2022-12-08T06:21:34;1.588148251088569;;;1.75;100.0
15558;BME280;7880;50.110;9.372;2022-12-08T06:26:40;1.6486497078614775;;;1.75;100.0
15558;BME280;7880;50.110;9.372;2022-12-08T06:31:43;1.557897538418183;;;1.687;100.0
15558;BME280;7880;50.110;9.372;2022-12-08T06:36:50;1.6738586605526506;;;1.812;100.0
15558;BME280;7880;50.110;9.372;2022-12-08T06:43:00;1.6083153986895922;;;1.75;100.0
15558;BME280;7880;50.110;9.372;2022-12-08T06:47:47;1.7091512065439018;;;1.812;100.0
15558;BME280;7880;50.110;9.372;2022-12-08T06:52:45;1.6284825509472285;;;1.75;100.0
15558;BME280;7880;50.110;9.372;2022-12-08T06:57:49;1.603273611352779;;;1.75;100.0
15558;BME280;7880;50.110;9.372;2022-12-08T07:02:56;1.5730228934437036;;;1.687;100.0
15558;BME280;7880;50.110;9.372;2022-12-08T07:07:57;1.6940258279442788;;;1.812;100.0
15558;BME280;7880;50.110;9.372;2022-12-08T07:13:03;1.6738586605526506;;;1.812;100.0
15558;BME280;7880;50.110;9.372;2022-12-08T07:18:05;1.6486497078614775;;;1.812;100.0
15558;BME280;7880;50.110;9.372;2022-12-08T07:23:08;1.6940258279442788;;;1.812;100.0
15558;BME280;7880;50.110;9.372;2022-12-08T07:28:12;1.6133571863174438;;;1.75;100.0
15558;BME280;7880;50.110;9.372;2022-12-08T07:33:17;1.5730228934437036;;;1.687;100.0
15558;BME280;7880;50.110;9.372;2022-12-08T07:38:20;1.6133571863174438;;;1.75;100.0
15558;BME280;7880;50.110;9.372;2022-12-08T07:43:25;1.5024379257345573;;;1.687;100.0
15558;BME280;7880;50.110;9.372;2022-12-08T07:48:29;1.5831064649159088;;;1.687;100.0
15558;BME280;7880;50.110;9.372;2022-12-08T07:53:39;1.6637750786030665;;;1.812;100.0
15558;BME280;7880;50.110;9.372;2022-12-08T07:58:46;1.588148251088569;;;1.75;100.0
15558;BME280;7880;50.110;9.372;2022-12-08T08:03:44;1.552855753991753;;;1.687;100.0
15558;BME280;7880;50.110;9.372;2022-12-08T08:08:53;1.5730228934437036;;;1.75;100.0
15558;BME280;7880;50.110;9.372;2022-12-08T08:13:58;1.5730228934437036;;;1.75;100.0
15558;BME280;7880;50.110;9.372;2022-12-08T08:18:57;1.6688168694323395;;;1.812;100.0
15558;BME280;7880;50.110;9.372;2022-12-08T08:24:15;1.7141929999925196;;;1.875;100.0
15558;BME280;7880;50.110;9.372;2022-12-08T08:29:08;1.7242765877628699;;;1.875;100.0
15558;BME280;7880;50.110;9.372;2022-12-08T08:34:15;1.7696527471358423;;;1.937;100.0
15558;BME280;7880;50.110;9.372;2022-12-08T08:39:17;1.7746945440769195;;;1.937;100.0
15558;BME280;7880;50.110;9.372;2022-12-08T08:44:21;1.7999035331478808;;;1.937;100.0
15558;BME280;7880;50.110;9.372;2022-12-08T08:49:25;1.8452797318110243;;;1.937;100.0
15558;BME280;7880;50.110;9.372;2022-12-08T08:54:28;1.784778138832189;;;1.937;100.0
15558;BME280;7880;50.110;9.372;2022-12-08T08:59:32;1.8150289300829172;;;1.937;100.0
15558;BME280;7880;50.110;9.372;2022-12-08T09:04:36;1.784778138832189;;;1.937;100.0
15558;BME280;7880;50.110;9.372;2022-12-08T09:09:38;1.996533897612244;;;2.062;100.0
15558;BME280;7880;50.110;9.372;2022-12-08T09:14:43;1.870488741254667;;;2.062;100.0
15558;BME280;7880;50.110;9.372;2022-12-08T09:19:47;1.9410740064049605;;;2.062;100.0
15558;BME280;7880;50.110;9.372;2022-12-08T09:24:51;1.930990393605316;;;2.062;100.0
15558;BME280;7880;50.110;9.372;2022-12-08T09:29:55;2.107453785673715;;;2.25;100.0
15558;BME280;7880;50.110;9.372;2022-12-08T09:34:58;1.8402379307954106;;;2.0;100.0
15558;BME280;7880;50.110;9.372;2022-12-08T09:40:01;1.870488741254667;;;2.0;100.0
15558;BME280;7880;50.110;9.372;2022-12-08T09:45:08;1.850321533117676;;;2.0;100.0
15558;BME280;7880;50.110;9.372;2022-12-08T09:50:14;2.3444194729963783;;;2.25;100.0
15558;BME280;7880;50.110;9.372;2022-12-08T09:55:19;1.850321533117676;;;2.0;100.0
15558;BME280;7880;50.110;9.372;2022-12-08T10:00:17;1.9713248517888133;;;2.062;100.0
15558;BME280;7880;50.110;9.372;2022-12-08T10:05:25;1.9108231714984867;;;2.062;100.0
15558;BME280;7880;50.110;9.372;2022-12-08T10:10:35;1.9511576203687582;;;2.062;100.0
15558;BME280;7880;50.110;9.372;2022-12-08T10:15:40;1.9864502784097566;;;2.062;100.0
15558;BME280;7880;50.110;9.372;2022-12-08T10:20:00;1.9713248517888133;;;2.125;100.0
15558;BME280;7880;50.110;9.372;2022-12-08T10:25:09;2.046952011086978;;;2.125;100.0
15558;BME280;7880;50.110;9.372;2022-12-08T10:30:17;2.1427465068700258;;;2.25;100.0
15558;BME280;7880;50.110;9.372;2022-12-08T10:35:11;2.0721610787382816;;;2.25;100.0
15558;BME280;7880;50.110;9.372;2022-12-08T10:40:16;2.112495602114359;;;2.25;100.0
15558;BME280;7880;50.110;9.372;2022-12-08T10:45:22;2.10241196952411;;;2.25;100.0
15558;BME280;7880;50.110;9.372;2022-12-08T10:50:21;1.9914920878654812;;;2.187;100.0
15558;BME280;7880;50.110;9.372;2022-12-08T10:55:23;2.011659328598762;;;2.125;100.0
15558;BME280;7880;50.110;9.372;2022-12-08T11:00:27;2.082244707836071;;;2.187;100.0
15558;BME280;7880;50.110;9.372;2022-12-08T11:05:33;2.1427465068700258;;;2.25;100.0
15558;BME280;7880;50.110;9.372;2022-12-08T11:10:43;2.117537418846041;;;2.25;100.0
15558;BME280;7880;50.110;9.372;2022-12-08T11:15:43;2.2385411077179014;;;2.375;100.0
15558;BME280;7880;50.110;9.372;2022-12-08T11:20:43;2.3091266703093423;;;2.437;100.0
15558;BME280;7880;50.110;9.372;2022-12-08T11:25:46;2.183081062842393;;;2.375;100.0
15558;BME280;7880;50.110;9.372;2022-12-08T11:30:54;2.152830144116888;;;2.312;100.0
15558;BME280;7880;50.110;9.372;2022-12-08T11:35:58;2.218373814597726;;;2.312;100.0
15558;BME280;7880;50.110;9.372;2022-12-08T11:40:59;2.10241196952411;;;2.312;100.0
15558;BME280;7880;50.110;9.372;2022-12-08T11:46:12;2.1780392423272135;;;2.312;100.0
15558;BME280;7880;50.110;9.372;2022-12-08T11:51:12;2.193164704745868;;;2.25;100.0
15558;BME280;7880;50.110;9.372;2022-12-08T11:56:32;2.2738338818831836;;;2.375;100.0
15558;BME280;7880;50.110;9.372;2022-12-08T12:01:30;2.2788757079280915;;;2.375;100.0
15558;BME280;7880;50.110;9.372;2022-12-08T12:06:54;2.334335813630605;;;2.437;100.0
15558;BME280;7880;50.110;9.372;2022-12-08T12:12:54;2.3746704580786173;;;2.437;100.0
15558;BME280;7880;50.110;9.372;2022-12-08T12:17:44;2.2940011878090445;;;2.437;100.0
15558;BME280;7880;50.110;9.372;2022-12-08T12:22:43;2.4956745031813625;;;2.562;100.0
15558;BME280;7880;50.110;9.372;2022-12-08T12:27:49;4.003197285556235;;;4.437;100.0
15558;BME280;7880;50.110;9.372;2022-12-08T12:32:53;2.8233946338295937;;;3.062;100.0
15558;BME280;7880;50.110;9.372;2022-12-08T12:37:59;2.657013490755344;;;2.812;100.0
15558;BME280;7880;50.110;9.372;2022-12-08T12:43:13;2.3645867952203843;;;2.5;100.0
15558;BME280;7880;50.110;9.372;2022-12-08T12:48:20;2.3746704580786173;;;2.437;100.0
15558;BME280;7880;50.110;9.372;2022-12-08T12:53:46;2.354503133526305;;;2.5;100.0
15558;BME280;7880;50.110;9.372;2022-12-08T12:58:36;2.500716342031956;;;2.562;100.0
15558;BME280;7880;50.110;9.372;2022-12-08T13:03:30;2.3242521554289852;;;2.437;100.0
15558;BME280;7880;50.110;9.372;2022-12-08T13:08:38;2.2334992840013;;;2.375;100.0
15558;BME280;7880;50.110;9.372;2022-12-08T13:13:54;2.2738338818831836;;;2.375;100.0
15558;BME280;7880;50.110;9.372;2022-12-08T13:18:46;2.3242521554289852;;;2.437;100.0
15558;BME280;7880;50.110;9.372;2022-12-08T13:23:49;2.3393776431679725;;;2.437;100.0
15558;BME280;7880;50.110;9.372;2022-12-08T13:29:29;2.3141684983915183;;;2.437;100.0
15558;BME280;7880;50.110;9.372;2022-12-08T13:34:15;2.304084842518205;;;2.437;100.0
15558;BME280;7880;50.110;9.372;2022-12-08T13:39:19;2.3444194729963783;;;2.437;100.0
15558;BME280;7880;50.110;9.372;2022-12-08T13:44:22;2.304084842518205;;;2.375;100.0
15558;BME280;7880;50.110;9.372;2022-12-08T13:49:28;2.3645867952203843;;;2.437;100.0
15558;BME280;7880;50.110;9.372;2022-12-08T13:54:29;2.3242521554289852;;;2.437;100.0
15558;BME280;7880;50.110;9.372;2022-12-08T13:59:30;2.3645867952203843;;;2.437;100.0
15558;BME280;7880;50.110;9.372;2022-12-08T14:04:31;2.717515687929699;;;3.0;100.0
15558;BME280;7880;50.110;9.372;2022-12-08T14:09:36;2.420046955347061;;;2.625;100.0
15558;BME280;7880;50.110;9.372;2022-12-08T14:14:57;2.4402142950333654;;;2.562;100.0
15558;BME280;7880;50.110;9.372;2022-12-08T14:19:53;2.4049214536382353;;;2.5;100.0
15558;BME280;7880;50.110;9.372;2022-12-08T14:24:52;2.2788757079280915;;;2.437;100.0
15558;BME280;7880;50.110;9.372;2022-12-08T14:29:56;2.42508878983208;;;2.5;100.0
15558;BME280;7880;50.110;9.372;2022-12-08T14:35:00;2.4150051211530807;;;2.5;100.0
15558;BME280;7880;50.110;9.372;2022-12-08T14:40:05;2.3091266703093423;;;2.375;100.0
15558;BME280;7880;50.110;9.372;2022-12-08T14:45:11;2.3242521554289852;;;2.437;100.0
15558;BME280;7880;50.110;9.372;2022-12-08T14:50:44;2.3141684983915183;;;2.437;100.0
15558;BME280;7880;50.110;9.372;2022-12-08T14:55:34;2.2334992840013;;;2.375;100.0
15558;BME280;7880;50.110;9.372;2022-12-08T15:00:44;2.2385411077179014;;;2.375;100.0
15558;BME280;7880;50.110;9.372;2022-12-08T15:05:41;2.2284574605757372;;;2.312;100.0
15558;BME280;7880;50.110;9.372;2022-12-08T15:11:13;2.2637502306664827;;;2.375;100.0
15558;BME280;7880;50.110;9.372;2022-12-08T15:15:58;2.1982065261341632;;;2.312;100.0
15558;BME280;7880;50.110;9.372;2022-12-08T15:21:03;2.1225792358687614;;;2.187;100.0
15558;BME280;7880;50.110;9.372;2022-12-08T15:26:05;2.0721610787382816;;;2.187;100.0
15558;BME280;7880;50.110;9.372;2022-12-08T15:31:10;2.067119264625944;;;2.125;100.0
15558;BME280;7880;50.110;9.372;2022-12-08T15:36:20;2.0772028931416573;;;2.125;100.0
15558;BME280;7880;50.110;9.372;2022-12-08T15:41:18;2.107453785673715;;;2.187;100.0
15558;BME280;7880;50.110;9.372;2022-12-08T15:46:22;1.885614150413312;;;2.0;100.0
15558;BME280;7880;50.110;9.372;2022-12-08T15:51:39;1.9259485876420512;;;2.0;100.0
15558;BME280;7880;50.110;9.372;2022-12-08T15:56:32;2.001575707650045;;;2.062;100.0
15558;BME280;7880;50.110;9.372;2022-12-08T16:01:36;1.870488741254667;;;1.937;100.0
15558;BME280;7880;50.110;9.372;2022-12-08T16:06:43;1.7242765877628699;;;1.812;100.0
15558;BME280;7880;50.110;9.372;2022-12-08T16:18:48;1.5427721860120074;;;1.625;100.0
15558;BME280;7880;50.110;9.372;2022-12-08T16:23:51;1.4167276844906156;;;1.437;100.0
15558;BME280;7880;50.110;9.372;2022-12-08T16:28:55;1.39151880601421;;;1.437;100.0
15558;BME280;7880;50.110;9.372;2022-12-08T16:34:00;1.2705162906087935;;;1.312;100.0
15558;BME280;7880;50.110;9.372;2022-12-08T16:39:22;1.3007669037440792;;;1.375;100.0
15558;BME280;7880;50.110;9.372;2022-12-08T16:44:13;1.2402656879508869;;;1.25;100.0
15558;BME280;7880;50.110;9.372;2022-12-08T16:49:16;1.1948898036091122;;;1.25;100.0
15558;BME280;7880;50.110;9.372;2022-12-08T16:54:23;1.174722751468653;;;1.25;100.0
15558;BME280;7880;50.110;9.372;2022-12-08T16:59:36;1.285641595866764;;;1.312;100.0
15558;BME280;7880;50.110;9.372;2022-12-08T17:04:32;1.230182156059891;;;1.25;100.0
15558;BME280;7880;50.110;9.372;2022-12-08T17:09:43;1.245307454332942;;;1.312;100.0
15558;BME280;7880;50.110;9.372;2022-12-08T17:14:40;1.210015095770359;;;1.25;100.0
15558;BME280;7880;50.110;9.372;2022-12-08T17:19:47;1.2352239218598697;;;1.25;100.0
15558;BME280;7880;50.110;9.372;2022-12-08T17:24:53;1.305808673618594;;;1.375;100.0
15558;BME280;7880;50.110;9.372;2022-12-08T17:30:02;2.4906326646218075;;;2.125;100.0
15558;BME280;7880;50.110;9.372;2022-12-08T17:35:04;1.5478139698563609;;;1.625;100.0
15558;BME280;7880;50.110;9.372;2022-12-08T17:40:08;3.423377751611406;;;3.0;100.0
15558;BME280;7880;50.110;9.372;2022-12-08T17:45:13;1.6587332880648318;;;1.937;100.0
15558;BME280;7880;50.110;9.372;2022-12-08T17:50:18;1.5478139698563609;;;1.687;100.0
15558;BME280;7880;50.110;9.372;2022-12-08T17:55:24;1.552855753991753;;;1.625;100.0
15558;BME280;7880;50.110;9.372;2022-12-08T18:00:35;3.655305103311548;;;3.375;100.0
15558;BME280;7880;50.110;9.372;2022-12-08T18:05:34;1.961241235496709;;;2.312;100.0
15558;BME280;7880;50.110;9.372;2022-12-08T18:10:37;1.623440762446262;;;1.812;100.0
15558;BME280;7880;50.110;9.372;2022-12-08T18:15:41;1.537730402458692;;;1.625;100.0
15558;BME280;7880;50.110;9.372;2022-12-08T18:20:52;1.5629393231356516;;;1.562;100.0
15558;BME280;7880;50.110;9.372;2022-12-08T18:25:51;1.552855753991753;;;1.625;100.0
15558;BME280;7880;50.110;9.372;2022-12-08T18:30:55;1.4721872427500784;;;1.562;100.0
15558;BME280;7880;50.110;9.372;2022-12-08T18:35:59;1.5427721860120074;;;1.625;100.0
15558;BME280;7880;50.110;9.372;2022-12-08T18:41:04;1.4772290225198959;;;1.562;100.0
15558;BME280;7880;50.110;9.372;2022-12-08T18:46:12;1.4873125829326455;;;1.562;100.0
15558;BME280;7880;50.110;9.372;2022-12-08T18:51:12;1.4016023565316573;;;1.5;100.0
15558;BME280;7880;50.110;9.372;2022-12-08T18:56:22;1.371351708471775;;;1.437;100.0
15558;BME280;7880;50.110;9.372;2022-12-08T19:01:22;1.4116859082132578;;;1.437;100.0
15558;BME280;7880;50.110;9.372;2022-12-08T19:06:32;1.3864770311920438;;;1.5;100.0
15558;BME280;7880;50.110;9.372;2022-12-08T19:11:33;1.2906833648681642;;;1.312;100.0
15558;BME280;7880;50.110;9.372;2022-12-08T19:16:38;1.39151880601421;;;1.5;100.0
15558;BME280;7880;50.110;9.372;2022-12-08T19:21:41;1.3612681614467874;;;1.437;100.0
15558;BME280;7880;50.110;9.372;2022-12-08T19:26:47;1.305808673618594;;;1.437;100.0
15558;BME280;7880;50.110;9.372;2022-12-08T19:31:49;1.371351708471775;;;1.5;100.0
15558;BME280;7880;50.110;9.372;2022-12-08T19:37:12;1.39151880601421;;;1.437;100.0
15558;BME280;7880;50.110;9.372;2022-12-08T19:48:59;1.39151880601421;;;1.437;100.0
15558;BME280;7880;50.110;9.372;2022-12-08T19:54:02;1.3360592989774887;;;1.437;100.0
15558;BME280;7880;50.110;9.372;2022-12-08T19:59:15;1.3663099348137622;;;1.437;100.0
15558;BME280;7880;50.110;9.372;2022-12-08T20:04:14;1.4368947925104294;;;1.5;100.0
15558;BME280;7880;50.110;9.372;2022-12-08T20:09:16;1.39151880601421;;;1.5;100.0
15558;BME280;7880;50.110;9.372;2022-12-08T20:14:21;1.4167276844906156;;;1.562;100.0
15558;BME280;7880;50.110;9.372;2022-12-08T20:19:25;1.3814352566609158;;;1.5;100.0
15558;BME280;7880;50.110;9.372;2022-12-08T20:24:39;1.3663099348137622;;;1.5;100.0
15558;BME280;7880;50.110;9.372;2022-12-08T20:29:44;1.356226388370851;;;1.437;100.0
15558;BME280;7880;50.110;9.372;2022-12-08T20:34:26;1.3864770311920438;;;1.562;100.0
15558;BME280;7880;50.110;9.372;2022-12-08T20:39:37;1.3108504437841475;;;1.5;100.0
15558;BME280;7880;50.110;9.372;2022-12-08T20:44:42;1.305808673618594;;;1.437;100.0
15558;BME280;7880;50.110;9.372;2022-12-08T20:49:34;1.3612681614467874;;;1.5;100.0
15558;BME280;7880;50.110;9.372;2022-12-08T20:54:38;1.245307454332942;;;1.312;100.0
15558;BME280;7880;50.110;9.372;2022-12-08T20:59:43;1.3259757560270373;;;1.437;100.0
15558;BME280;7880;50.110;9.372;2022-12-08T21:04:57;1.2755580587370787;;;1.375;100.0
15558;BME280;7880;50.110;9.372;2022-12-08T21:10:03;1.3158922142407392;;;1.437;100.0
15558;BME280;7880;50.110;9.372;2022-12-08T21:15:07;1.2957251341606024;;;1.437;100.0
15558;BME280;7880;50.110;9.372;2022-12-08T21:20:09;1.3461428430920932;;;1.437;100.0
15558;BME280;7880;50.110;9.372;2022-12-08T21:25:39;1.3461428430920932;;;1.5;100.0
15558;BME280;7880;50.110;9.372;2022-12-08T21:30:19;1.3864770311920438;;;1.5;100.0
15558;BME280;7880;50.110;9.372;2022-12-08T21:35:33;1.3007669037440792;;;1.437;100.0
15558;BME280;7880;50.110;9.372;2022-12-08T21:40:30;1.3310175273567437;;;1.437;100.0
15558;BME280;7880;50.110;9.372;2022-12-08T21:45:34;1.3864770311920438;;;1.5;100.0
15558;BME280;7880;50.110;9.372;2022-12-08T21:50:43;1.2957251341606024;;;1.375;100.0
15558;BME280;7880;50.110;9.372;2022-12-08T21:55:48;1.2957251341606024;;;1.375;100.0
15558;BME280;7880;50.110;9.372;2022-12-08T22:00:46;1.2654745227715467;;;1.375;100.0
15558;BME280;7880;50.110;9.372;2022-12-08T22:05:51;1.2654745227715467;;;1.437;100.0
15558;BME280;7880;50.110;9.372;2022-12-08T22:11:02;1.2957251341606024;;;1.437;100.0
15558;BME280;7880;50.110;9.372;2022-12-08T22:16:05;1.2049733314255717;;;1.375;100.0
15558;BME280;7880;50.110;9.372;2022-12-08T22:21:12;1.2352239218598697;;;1.375;100.0
15558;BME280;7880;50.110;9.372;2022-12-08T22:26:07;1.260432755225338;;;1.375;100.0
15558;BME280;7880;50.110;9.372;2022-12-08T22:31:17;1.2654745227715467;;;1.375;100.0
15558;BME280;7880;50.110;9.372;2022-12-08T22:36:19;1.1797645140672102;;;1.312;100.0
15558;BME280;7880;50.110;9.372;2022-12-08T22:41:18;1.2402656879508869;;;1.375;100.0
15558;BME280;7880;50.110;9.372;2022-12-08T22:46:25;1.199931567371823;;;1.375;100.0
15558;BME280;7880;50.110;9.372;2022-12-08T22:51:27;1.2251403905509506;;;1.312;100.0
15558;BME280;7880;50.110;9.372;2022-12-08T22:56:33;1.174722751468653;;;1.25;100.0
15558;BME280;7880;50.110;9.372;2022-12-08T23:01:56;1.1243051414901857;;;1.312;100.0
15558;BME280;7880;50.110;9.372;2022-12-08T23:06:40;1.1696809891611337;;;1.312;100.0
15558;BME280;7880;50.110;9.372;2022-12-08T23:11:45;1.2352239218598697;;;1.375;100.0
15558;BME280;7880;50.110;9.372;2022-12-08T23:16:49;1.2049733314255717;;;1.375;100.0
15558;BME280;7880;50.110;9.372;2022-12-08T23:21:56;1.2251403905509506;;;1.312;100.0
15558;BME280;7880;50.110;9.372;2022-12-08T23:26:58;1.2352239218598697;;;1.375;100.0
15558;BME280;7880;50.110;9.372;2022-12-08T23:32:02;1.2654745227715467;;;1.437;100.0
15558;BME280;7880;50.110;9.372;2022-12-08T23:37:06;1.2200986253330484;;;1.375;100.0
15558;BME280;7880;50.110;9.372;2022-12-08T23:42:11;1.048678781092167;;;1.25;100.0
15558;BME280;7880;50.110;9.372;2022-12-08T23:47:19;1.1948898036091122;;;1.312;100.0
15558;BME280;7880;50.110;9.372;2022-12-08T23:52:18;1.356226388370851;;;1.5;100.0
15558;BME280;7880;50.110;9.372;2022-12-08T23:57:22;1.7192347937321757;;;1.75;100.0
